createdAt,value
2023-05-02T00:00:17.171Z,99140.47
2023-05-02T00:02:46.192Z,99145.53
2023-05-02T00:05:14.754Z,99147.81
2023-05-02T00:07:43.148Z,99138.94
2023-05-02T00:10:13.661Z,99148.75
2023-05-02T00:12:42.098Z,99143.19
2023-05-02T00:15:11.294Z,99140.72
2023-05-02T00:17:42.386Z,99142.66
2023-05-02T00:20:12.686Z,99144.16
2023-05-02T00:22:41.549Z,99138.41
2023-05-02T00:25:16.137Z,99139.53
2023-05-02T00:27:46.794Z,99144.59
2023-05-02T00:30:16.181Z,99146.88
2023-05-02T00:32:44.510Z,99144.75
2023-05-02T00:35:13.160Z,99140.66
2023-05-02T00:37:41.600Z,99143.22
2023-05-02T00:40:13.266Z,99137.16
2023-05-02T00:42:41.584Z,99146.63
2023-05-02T00:45:12.423Z,99143.34
2023-05-02T00:47:40.933Z,99149.22
2023-05-02T00:50:10.469Z,99145.94
2023-05-02T00:52:39.369Z,99144.78
2023-05-02T00:55:08.971Z,99146.28
2023-05-02T00:57:39.127Z,99154.78
2023-05-02T01:00:10.800Z,99149.22
2023-05-02T01:02:49.806Z,99156.94
2023-05-02T01:05:26.183Z,99163.81
2023-05-02T01:08:12.386Z,99158.44
2023-05-02T01:10:51.186Z,99150.81
2023-05-02T01:13:24.004Z,99155.91
2023-05-02T01:15:54.605Z,99154.63
2023-05-02T01:18:26.567Z,99161.16
2023-05-02T01:21:00.452Z,99163.53
2023-05-02T01:23:41.339Z,99163.34
2023-05-02T01:26:22.548Z,99161.59
2023-05-02T01:29:01.612Z,99154.59
2023-05-02T01:31:34.433Z,99160.81
2023-05-02T01:34:04.111Z,99159.03
2023-05-02T01:36:35.395Z,99150.38
2023-05-02T01:39:06.143Z,99148.91
2023-05-02T01:41:36.186Z,99143.34
2023-05-02T01:44:08.091Z,99145.81
2023-05-02T01:46:41.216Z,99155.81
2023-05-02T01:49:10.131Z,99155.47
2023-05-02T01:51:46.058Z,99153.03
2023-05-02T01:54:17.002Z,99160.69
2023-05-02T01:56:46.807Z,99157.63
2023-05-02T01:59:21.316Z,99163.47
2023-05-02T02:01:51.656Z,99163.97
2023-05-02T02:04:21.902Z,99167.59
2023-05-02T02:06:56.801Z,99167.59
2023-05-02T02:09:25.266Z,99163.66
2023-05-02T02:12:04.753Z,99167.09
2023-05-02T02:14:38.778Z,99167.41
2023-05-02T02:17:13.772Z,99168.88
2023-05-02T02:19:43.993Z,99165.59
2023-05-02T02:22:16.941Z,99170.47
2023-05-02T02:24:47.591Z,99168.66
2023-05-02T02:27:16.432Z,99169.63
2023-05-02T02:29:46.168Z,99170.91
2023-05-02T02:32:14.773Z,99173.47
2023-05-02T02:34:43.325Z,99167.25
2023-05-02T02:37:19.071Z,99170.47
2023-05-02T02:39:57.130Z,99170.94
2023-05-02T02:42:40.981Z,99183.81
2023-05-02T02:45:28.096Z,99186.72
2023-05-02T02:48:12.343Z,99193.72
2023-05-02T02:50:55.355Z,99193.22
2023-05-02T02:53:34.961Z,99194.69
2023-05-02T02:56:08.299Z,99186.34
2023-05-02T02:58:52.155Z,99196.63
2023-05-02T03:01:24.541Z,99193.22
2023-05-02T03:03:54.664Z,99204.03
2023-05-02T03:06:23.325Z,99204.03
2023-05-02T03:08:51.717Z,99200.94
2023-05-02T03:11:20.036Z,99199.00
2023-05-02T03:13:48.720Z,99206.16
2023-05-02T03:16:40.795Z,99212.38
2023-05-02T03:19:09.829Z,99217.28
2023-05-02T03:21:38.224Z,99220.06
2023-05-02T03:24:07.153Z,99217.78
2023-05-02T03:26:35.536Z,99222.22
2023-05-02T03:29:03.882Z,99223.56
2023-05-02T03:31:32.399Z,99218.50
2023-05-02T03:34:02.234Z,99229.28
2023-05-02T03:36:30.605Z,99224.56
2023-05-02T03:38:59.001Z,99230.13
2023-05-02T03:41:27.498Z,99226.00
2023-05-02T03:43:56.079Z,99233.84
2023-05-02T03:46:24.566Z,99229.22
2023-05-02T03:48:53.024Z,99231.50
2023-05-02T03:51:22.783Z,99238.00
2023-05-02T03:53:51.114Z,99228.66
2023-05-02T03:56:20.953Z,99234.03
2023-05-02T03:58:50.193Z,99241.03
2023-05-02T04:01:18.665Z,99241.34
2023-05-02T04:03:47.133Z,99255.25
2023-05-02T04:06:15.659Z,99253.28
2023-05-02T04:08:45.356Z,99249.34
2023-05-02T04:11:13.929Z,99260.97
2023-05-02T04:13:42.301Z,99260.34
2023-05-02T04:16:10.914Z,99265.59
2023-05-02T04:18:39.295Z,99271.97
2023-05-02T04:21:10.463Z,99278.03
2023-05-02T04:23:39.086Z,99286.56
2023-05-02T04:26:08.762Z,99278.13
2023-05-02T04:28:37.224Z,99294.66
2023-05-02T04:31:05.946Z,99282.59
2023-05-02T04:33:34.374Z,99288.03
2023-05-02T04:36:02.991Z,99283.81
2023-05-02T04:38:31.313Z,99283.47
2023-05-02T04:40:59.770Z,99287.72
2023-05-02T04:43:39.075Z,99285.91
2023-05-02T04:46:08.709Z,99290.94
2023-05-02T04:48:37.144Z,99294.34
2023-05-02T04:51:06.117Z,99297.13
2023-05-02T04:53:34.691Z,99294.97
2023-05-02T04:56:03.069Z,99296.09
2023-05-02T04:58:31.414Z,99301.66
2023-05-02T05:01:01.661Z,99305.25
2023-05-02T05:03:31.312Z,99301.38
2023-05-02T05:06:00.085Z,99312.16
2023-05-02T05:08:28.566Z,99302.38
2023-05-02T05:10:57.508Z,99316.97
2023-05-02T05:13:25.929Z,99319.00
2023-05-02T05:15:54.836Z,99320.69
2023-05-02T05:18:24.837Z,99325.69
2023-05-02T05:20:53.234Z,99328.72
2023-05-02T05:23:21.630Z,99320.44
2023-05-02T05:25:50.054Z,99327.72
2023-05-02T05:28:18.821Z,99324.97
2023-05-02T05:30:47.506Z,99325.97
2023-05-02T05:33:16.065Z,99336.84
2023-05-02T05:35:45.900Z,99328.53
2023-05-02T05:38:14.256Z,99336.59
2023-05-02T05:40:42.568Z,99336.47
2023-05-02T05:43:10.946Z,99337.47
2023-05-02T05:45:39.353Z,99339.44
2023-05-02T05:48:08.783Z,99342.44
2023-05-02T05:50:37.187Z,99338.09
2023-05-02T05:53:06.864Z,99338.09
2023-05-02T05:55:37.213Z,99352.38
2023-05-02T05:58:06.288Z,99352.91
2023-05-02T06:00:36.551Z,99357.84
2023-05-02T06:03:07.274Z,99356.53
2023-05-02T06:05:37.262Z,99356.38
2023-05-02T06:08:07.177Z,99361.19
2023-05-02T06:10:35.504Z,99354.28
2023-05-02T06:13:03.791Z,99360.84
2023-05-02T06:15:34.397Z,99362.16
2023-05-02T06:18:02.753Z,99359.69
2023-05-02T06:20:31.142Z,99358.53
2023-05-02T06:22:59.498Z,99360.97
2023-05-02T06:25:29.255Z,99346.50
2023-05-02T06:27:57.584Z,99352.88
2023-05-02T06:30:26.760Z,99356.47
2023-05-02T06:32:55.163Z,99360.75
2023-05-02T06:35:23.544Z,99357.97
2023-05-02T06:37:51.920Z,99368.81
2023-05-02T06:40:20.453Z,99370.13
2023-05-02T06:42:50.226Z,99370.63
2023-05-02T06:45:18.651Z,99381.44
2023-05-02T06:47:47.054Z,99385.22
2023-05-02T06:50:15.372Z,99386.56
2023-05-02T06:52:43.742Z,99393.78
2023-05-02T06:55:12.268Z,99387.19
2023-05-02T06:57:40.733Z,99394.25
2023-05-02T07:00:12.718Z,99388.19
2023-05-02T07:02:41.218Z,99391.13
2023-05-02T07:05:10.728Z,99393.41
2023-05-02T07:07:39.137Z,99381.06
2023-05-02T07:10:09.153Z,99383.31
2023-05-02T07:12:37.489Z,99378.78
2023-05-02T07:15:07.751Z,99385.63
2023-05-02T07:17:37.517Z,99382.53
2023-05-02T07:20:07.902Z,99389.16
2023-05-02T07:22:36.286Z,99391.91
2023-05-02T07:25:05.764Z,99394.03
2023-05-02T07:27:34.153Z,99393.50
2023-05-02T07:30:03.105Z,99394.53
2023-05-02T07:32:33.012Z,99392.72
2023-05-02T07:35:02.975Z,99404.72
2023-05-02T07:37:35.323Z,99399.81
2023-05-02T07:40:04.626Z,99407.72
2023-05-02T07:42:33.732Z,99419.59
2023-05-02T07:45:02.118Z,99404.84
2023-05-02T07:47:30.528Z,99417.38
2023-05-02T07:49:59.373Z,99426.09
2023-05-02T07:52:29.372Z,99422.16
2023-05-02T07:54:57.737Z,99428.53
2023-05-02T07:57:27.286Z,99427.50
2023-05-02T07:59:57.354Z,99429.41
2023-05-02T08:02:26.233Z,99434.97
2023-05-02T08:04:54.856Z,99432.78
2023-05-02T08:07:23.255Z,99430.13
2023-05-02T08:09:52.948Z,99438.53
2023-05-02T08:12:21.450Z,99434.06
2023-05-02T08:14:49.808Z,99436.19
2023-05-02T08:17:18.168Z,99442.63
2023-05-02T08:19:46.485Z,99435.84
2023-05-02T08:22:15.206Z,99436.31
2023-05-02T08:24:43.650Z,99435.69
2023-05-02T08:27:13.427Z,99439.91
2023-05-02T08:29:41.861Z,99447.75
2023-05-02T08:32:10.278Z,99446.88
2023-05-02T08:34:38.627Z,99444.69
2023-05-02T08:37:10.341Z,99449.50
2023-05-02T08:39:38.693Z,99443.41
2023-05-02T08:42:08.860Z,99450.84
2023-05-02T08:44:39.051Z,99450.84
2023-05-02T08:47:07.960Z,99443.88
2023-05-02T08:49:37.331Z,99456.00
2023-05-02T08:52:06.911Z,99450.63
2023-05-02T08:54:38.434Z,99453.63
2023-05-02T08:57:07.388Z,99459.72
2023-05-02T08:59:35.817Z,99453.44
2023-05-02T09:02:24.948Z,99463.81
2023-05-02T09:04:59.259Z,99451.91
2023-05-02T09:07:28.013Z,99452.50
2023-05-02T09:09:56.997Z,99446.94
2023-05-02T09:12:27.673Z,99453.09
2023-05-02T09:15:21.576Z,99453.41
2023-05-02T09:17:51.407Z,99450.22
2023-05-02T09:20:19.822Z,99441.28
2023-05-02T09:22:52.948Z,99439.91
2023-05-02T09:25:22.128Z,99455.75
2023-05-02T09:27:52.985Z,99450.31
2023-05-02T09:30:23.954Z,99447.03
2023-05-02T09:32:55.975Z,99450.81
2023-05-02T09:35:24.992Z,99456.22
2023-05-02T09:37:55.071Z,99455.81
2023-05-02T09:40:24.791Z,99455.75
2023-05-02T09:42:53.672Z,99458.47
2023-05-02T09:45:24.282Z,99455.09
2023-05-02T09:47:54.662Z,99456.41
2023-05-02T09:50:37.934Z,99467.28
2023-05-02T09:53:08.439Z,99453.66
2023-05-02T09:55:37.000Z,99465.38
2023-05-02T09:58:06.671Z,99473.88
2023-05-02T10:00:43.710Z,99473.50
2023-05-02T10:03:18.544Z,99460.34
2023-05-02T10:05:48.398Z,99465.09
2023-05-02T10:08:19.736Z,99475.63
2023-05-02T10:10:54.630Z,99472.72
2023-05-02T10:13:27.121Z,99468.78
2023-05-02T10:16:03.067Z,99467.06
2023-05-02T10:18:42.194Z,99476.75
2023-05-02T10:21:13.502Z,99483.19
2023-05-02T10:23:44.549Z,99476.53
2023-05-02T10:26:17.278Z,99476.53
2023-05-02T10:28:46.055Z,99489.72
2023-05-02T10:31:16.279Z,99477.81
2023-05-02T10:33:48.060Z,99477.09
2023-05-02T10:36:16.931Z,99482.00
2023-05-02T10:38:46.744Z,99483.63
2023-05-02T10:41:20.490Z,99484.88
2023-05-02T10:43:50.590Z,99484.88
2023-05-02T10:46:33.161Z,99493.03
2023-05-02T10:49:08.918Z,99489.13
2023-05-02T10:51:59.556Z,99507.78
2023-05-02T10:54:28.275Z,99510.09
2023-05-02T10:57:08.197Z,99508.06
2023-05-02T10:59:39.150Z,99505.31
2023-05-02T11:02:21.767Z,99495.13
2023-05-02T11:05:06.660Z,99508.66
2023-05-02T11:07:36.204Z,99499.72
2023-05-02T11:10:34.637Z,99497.06
2023-05-02T11:13:03.022Z,99495.16
2023-05-02T11:15:56.953Z,99495.88
2023-05-02T11:18:25.513Z,99508.59
2023-05-02T11:21:29.717Z,99495.78
2023-05-02T11:24:40.929Z,99501.72
2023-05-02T11:27:40.632Z,99509.09
2023-05-02T11:30:11.347Z,99508.25
2023-05-02T11:33:16.156Z,99513.44
2023-05-02T11:35:46.955Z,99512.09
2023-05-02T11:38:19.794Z,99503.63
2023-05-02T11:40:59.323Z,99500.28
2023-05-02T11:43:31.748Z,99495.09
2023-05-02T11:46:02.946Z,99500.31
2023-05-02T11:48:32.816Z,99497.03
2023-05-02T11:51:05.280Z,99499.44
2023-05-02T11:53:41.292Z,99495.72
2023-05-02T11:56:10.127Z,99489.47
2023-05-02T11:58:38.518Z,99496.34
2023-05-02T12:01:15.121Z,99497.78
2023-05-02T12:03:44.343Z,99493.28
2023-05-02T12:06:15.584Z,99489.59
2023-05-02T12:08:46.721Z,99485.94
2023-05-02T12:11:16.737Z,99495.88
2023-05-02T12:13:50.082Z,99494.38
2023-05-02T12:16:19.625Z,99499.31
2023-05-02T12:18:49.516Z,99487.59
2023-05-02T12:21:19.088Z,99481.97
2023-05-02T12:23:49.072Z,99495.84
2023-05-02T12:26:22.517Z,99502.13
2023-05-02T12:28:52.722Z,99498.78
2023-05-02T12:31:21.315Z,99504.53
2023-05-02T12:33:50.888Z,99505.66
2023-05-02T12:36:19.715Z,99507.78
2023-05-02T12:38:55.159Z,99503.47
2023-05-02T12:41:34.085Z,99504.84
2023-05-02T12:44:02.572Z,99507.75
2023-05-02T12:46:32.017Z,99511.53
2023-05-02T12:49:05.768Z,99511.53
2023-05-02T12:51:34.681Z,99508.03
2023-05-02T12:54:05.402Z,99512.72
2023-05-02T12:56:40.684Z,99503.94
2023-05-02T12:59:10.496Z,99509.91
2023-05-02T13:01:39.522Z,99511.66
2023-05-02T13:04:07.988Z,99521.13
2023-05-02T13:06:38.193Z,99512.13
2023-05-02T13:09:08.288Z,99516.69
2023-05-02T13:11:36.823Z,99519.84
2023-05-02T13:14:06.044Z,99525.06
2023-05-02T13:16:36.753Z,99523.16
2023-05-02T13:19:06.221Z,99519.03
2023-05-02T13:21:34.678Z,99516.81
2023-05-02T13:24:04.255Z,99525.31
2023-05-02T13:26:34.101Z,99520.75
2023-05-02T13:29:02.510Z,99524.94
2023-05-02T13:31:31.198Z,99528.59
2023-05-02T13:33:59.616Z,99522.41
2023-05-02T13:36:27.986Z,99529.34
2023-05-02T13:38:56.480Z,99524.50
2023-05-02T13:41:25.578Z,99528.03
2023-05-02T13:43:55.389Z,99516.47
2023-05-02T13:46:23.879Z,99526.78
2023-05-02T13:48:52.228Z,99527.50
2023-05-02T13:51:20.534Z,99528.63
2023-05-02T13:53:48.880Z,99527.16
2023-05-02T13:56:17.372Z,99530.31
2023-05-02T13:58:45.790Z,99524.94
2023-05-02T14:01:15.467Z,99526.47
2023-05-02T14:03:44.367Z,99522.22
2023-05-02T14:06:12.810Z,99527.69
2023-05-02T14:08:41.246Z,99529.53
2023-05-02T14:11:09.717Z,99536.13
2023-05-02T14:13:38.418Z,99529.06
2023-05-02T14:16:07.758Z,99525.84
2023-05-02T14:18:37.538Z,99537.25
2023-05-02T14:21:06.641Z,99541.66
2023-05-02T14:23:35.363Z,99552.53
2023-05-02T14:26:04.222Z,99538.91
2023-05-02T14:28:32.633Z,99546.31
2023-05-02T14:31:01.056Z,99540.41
2023-05-02T14:33:29.320Z,99549.13
2023-05-02T14:35:58.965Z,99554.06
2023-05-02T14:38:27.410Z,99551.75
2023-05-02T14:40:56.192Z,99551.13
2023-05-02T14:43:24.583Z,99551.63
2023-05-02T14:45:52.995Z,99554.41
2023-05-02T14:48:21.393Z,99547.53
2023-05-02T14:50:49.785Z,99555.41
2023-05-02T14:53:19.487Z,99548.31
2023-05-02T14:55:50.340Z,99552.41
2023-05-02T14:58:20.754Z,99554.06
2023-05-02T15:00:51.379Z,99554.88
2023-05-02T15:03:22.945Z,99556.69
2023-05-02T15:05:52.237Z,99555.03
2023-05-02T15:08:22.827Z,99552.38
2023-05-02T15:10:51.102Z,99557.47
2023-05-02T15:13:19.558Z,99549.44
2023-05-02T15:15:48.873Z,99549.94
2023-05-02T15:18:17.481Z,99547.28
2023-05-02T15:20:46.889Z,99542.69
2023-05-02T15:23:15.309Z,99547.97
2023-05-02T15:25:49.623Z,99550.09
2023-05-02T15:28:19.145Z,99551.41
2023-05-02T15:30:49.118Z,99549.44
2023-05-02T15:33:17.472Z,99541.06
2023-05-02T15:35:55.289Z,99539.25
2023-05-02T15:38:23.988Z,99547.16
2023-05-02T15:40:58.508Z,99542.06
2023-05-02T15:43:28.059Z,99547.63
2023-05-02T15:45:58.606Z,99545.81
2023-05-02T15:48:29.556Z,99539.22
2023-05-02T15:50:58.482Z,99545.13
2023-05-02T15:53:27.011Z,99543.81
2023-05-02T15:55:56.776Z,99542.50
2023-05-02T15:58:25.103Z,99542.84
2023-05-02T16:00:53.430Z,99536.25
2023-05-02T16:03:21.948Z,99538.38
2023-05-02T16:05:53.188Z,99537.34
2023-05-02T16:08:21.820Z,99535.94
2023-05-02T16:10:50.204Z,99539.06
2023-05-02T16:13:19.964Z,99541.47
2023-05-02T16:15:49.041Z,99533.59
2023-05-02T16:18:17.438Z,99541.25
2023-05-02T16:20:47.870Z,99538.44
2023-05-02T16:23:16.196Z,99540.00
2023-05-02T16:25:44.533Z,99544.91
2023-05-02T16:28:12.817Z,99534.69
2023-05-02T16:30:42.810Z,99540.41
2023-05-02T16:33:11.265Z,99539.56
2023-05-02T16:35:39.576Z,99536.28
2023-05-02T16:38:07.896Z,99544.75
2023-05-02T16:40:37.002Z,99546.56
2023-05-02T16:43:05.559Z,99535.69
2023-05-02T16:45:33.884Z,99543.56
2023-05-02T16:48:04.400Z,99545.84
2023-05-02T16:50:32.979Z,99547.63
2023-05-02T16:53:01.357Z,99559.72
2023-05-02T16:55:29.890Z,99564.28
2023-05-02T16:57:58.306Z,99562.94
2023-05-02T17:00:26.857Z,99566.66
2023-05-02T17:02:57.098Z,99570.56
2023-05-02T17:05:27.231Z,99577.91
2023-05-02T17:07:55.585Z,99581.31
2023-05-02T17:10:24.463Z,99580.81
2023-05-02T17:12:54.311Z,99580.63
2023-05-02T17:15:23.029Z,99585.66
2023-05-02T17:17:51.467Z,99591.56
2023-05-02T17:20:20.545Z,99589.09
2023-05-02T17:22:50.508Z,99590.53
2023-05-02T17:25:19.349Z,99593.31
2023-05-02T17:27:47.730Z,99601.97
2023-05-02T17:30:16.988Z,99614.56
2023-05-02T17:32:45.467Z,99624.03
2023-05-02T17:35:14.415Z,99626.84
2023-05-02T17:37:42.778Z,99626.84
2023-05-02T17:40:13.965Z,99629.94
2023-05-02T17:42:45.667Z,99632.72
2023-05-02T17:45:15.169Z,99636.72
2023-05-02T17:47:43.586Z,99631.28
2023-05-02T17:50:14.582Z,99630.53
2023-05-02T17:52:43.260Z,99643.09
2023-05-02T17:55:13.120Z,99649.28
2023-05-02T17:57:41.459Z,99658.28
2023-05-02T18:00:11.822Z,99651.13
2023-05-02T18:02:40.287Z,99658.78
2023-05-02T18:05:09.942Z,99656.94
2023-05-02T18:07:38.419Z,99661.75
2023-05-02T18:10:09.154Z,99672.13
2023-05-02T18:12:39.441Z,99680.88
2023-05-02T18:15:10.765Z,99681.28
2023-05-02T18:17:40.216Z,99681.91
2023-05-02T18:20:10.890Z,99688.38
2023-05-02T18:22:40.689Z,99691.25
2023-05-02T18:25:10.025Z,99695.75
2023-05-02T18:27:40.156Z,99682.28
2023-05-02T18:30:21.010Z,99698.59
2023-05-02T18:32:50.019Z,99697.31
2023-05-02T18:35:20.187Z,99707.16
2023-05-02T18:37:50.880Z,99703.09
2023-05-02T18:40:20.335Z,99708.19
2023-05-02T18:42:51.698Z,99714.13
2023-05-02T18:45:21.184Z,99717.81
2023-05-02T18:47:51.518Z,99721.19
2023-05-02T18:50:22.233Z,99725.69
2023-05-02T18:52:51.053Z,99728.25
2023-05-02T18:55:22.849Z,99721.63
2023-05-02T18:57:55.285Z,99721.13
2023-05-02T19:00:26.711Z,99726.66
2023-05-02T19:02:55.602Z,99723.88
2023-05-02T19:05:24.418Z,99729.44
2023-05-02T19:07:52.835Z,99728.84
2023-05-02T19:10:21.602Z,99729.69
2023-05-02T19:12:51.468Z,99734.09
2023-05-02T19:15:23.903Z,99739.38
2023-05-02T19:17:53.660Z,99749.84
2023-05-02T19:20:23.441Z,99744.84
2023-05-02T19:22:55.809Z,99748.16
2023-05-02T19:25:29.212Z,99741.19
2023-05-02T19:27:57.920Z,99747.25
2023-05-02T19:30:28.115Z,99748.59
2023-05-02T19:32:56.713Z,99751.06
2023-05-02T19:35:26.141Z,99752.44
2023-05-02T19:37:55.514Z,99751.59
2023-05-02T19:40:24.931Z,99761.34
2023-05-02T19:42:54.893Z,99754.97
2023-05-02T19:45:23.877Z,99764.72
2023-05-02T19:47:55.077Z,99766.38
2023-05-02T19:50:25.070Z,99771.94
2023-05-02T19:52:54.748Z,99770.25
2023-05-02T19:55:24.190Z,99759.47
2023-05-02T19:57:52.884Z,99775.28
2023-05-02T20:00:21.625Z,99771.16
2023-05-02T20:02:51.546Z,99775.09
2023-05-02T20:05:23.477Z,99775.66
2023-05-02T20:07:53.423Z,99778.44
2023-05-02T20:10:21.932Z,99775.16
2023-05-02T20:12:50.314Z,99777.91
2023-05-02T20:15:19.050Z,99784.63
2023-05-02T20:17:47.646Z,99783.47
2023-05-02T20:20:16.203Z,99779.59
2023-05-02T20:22:46.506Z,99776.50
2023-05-02T20:25:16.213Z,99775.38
2023-05-02T20:27:44.867Z,99781.47
2023-05-02T20:30:13.786Z,99781.75
2023-05-02T20:32:42.420Z,99775.66
2023-05-02T20:35:11.719Z,99779.34
2023-05-02T20:37:40.099Z,99786.31
2023-05-02T20:40:12.553Z,99790.28
2023-05-02T20:42:42.468Z,99793.38
2023-05-02T20:45:14.119Z,99792.59
2023-05-02T20:47:42.568Z,99789.56
2023-05-02T20:50:11.662Z,99799.34
2023-05-02T20:52:40.223Z,99797.97
2023-05-02T20:55:10.988Z,99799.41
2023-05-02T20:57:39.479Z,99800.81
2023-05-02T21:00:12.384Z,99809.72
2023-05-02T21:02:41.097Z,99799.44
2023-05-02T21:05:10.236Z,99805.31
2023-05-02T21:07:40.569Z,99802.81
2023-05-02T21:10:12.031Z,99800.34
2023-05-02T21:12:40.865Z,99805.06
2023-05-02T21:15:10.359Z,99797.56
2023-05-02T21:17:41.023Z,99807.53
2023-05-02T21:20:11.142Z,99800.88
2023-05-02T21:22:39.546Z,99804.16
2023-05-02T21:25:08.804Z,99816.94
2023-05-02T21:27:38.518Z,99811.38
2023-05-02T21:30:08.853Z,99805.00
2023-05-02T21:32:37.261Z,99818.03
2023-05-02T21:35:06.708Z,99807.25
2023-05-02T21:37:35.128Z,99818.34
2023-05-02T21:40:04.215Z,99823.94
2023-05-02T21:42:32.938Z,99830.34
2023-05-02T21:45:02.693Z,99812.88
2023-05-02T21:47:31.090Z,99815.41
2023-05-02T21:49:59.717Z,99812.16
2023-05-02T21:52:28.199Z,99811.69
2023-05-02T21:54:56.541Z,99813.13
2023-05-02T21:57:24.966Z,99807.41
2023-05-02T21:59:53.294Z,99821.63
2023-05-02T22:02:23.727Z,99823.59
2023-05-02T22:04:52.132Z,99815.31
2023-05-02T22:07:20.528Z,99817.56
2023-05-02T22:09:48.978Z,99817.03
2023-05-02T22:12:17.318Z,99817.03
2023-05-02T22:14:46.056Z,99810.66
2023-05-02T22:17:18.485Z,99818.44
2023-05-02T22:19:49.814Z,99821.22
2023-05-02T22:22:18.227Z,99822.03
2023-05-02T22:24:46.571Z,99822.34
2023-05-02T22:27:14.864Z,99807.66
2023-05-02T22:29:43.201Z,99815.97
2023-05-02T22:32:11.538Z,99810.69
2023-05-02T22:34:39.797Z,99804.34
2023-05-02T22:37:09.915Z,99812.38
2023-05-02T22:39:38.210Z,99813.19
2023-05-02T22:42:06.654Z,99819.56
2023-05-02T22:44:46.683Z,99822.34
2023-05-02T22:47:19.232Z,99810.97
2023-05-02T22:49:47.606Z,99814.84
2023-05-02T22:52:18.336Z,99816.50
2023-05-02T22:54:46.670Z,99817.34
2023-05-02T22:57:15.027Z,99810.97
2023-05-02T22:59:43.376Z,99817.34
2023-05-02T23:02:12.582Z,99817.34
2023-05-02T23:04:41.037Z,99824.81
2023-05-02T23:07:09.393Z,99814.56
2023-05-02T23:09:39.077Z,99816.50
2023-05-02T23:12:07.500Z,99810.97
2023-05-02T23:14:35.755Z,99817.59
2023-05-02T23:17:04.248Z,99816.81
2023-05-02T23:19:32.598Z,99820.69
2023-05-02T23:22:01.170Z,99817.06
2023-05-02T23:24:29.752Z,99817.06
2023-05-02T23:26:59.565Z,99815.44
2023-05-02T23:29:27.992Z,99807.91
2023-05-02T23:31:56.454Z,99807.91
2023-05-02T23:34:25.104Z,99807.91
2023-05-02T23:36:54.089Z,99813.19
2023-05-02T23:39:22.471Z,99817.91
2023-05-02T23:41:50.790Z,99810.41
2023-05-02T23:44:20.598Z,99817.06
2023-05-02T23:46:49.110Z,99806.81
2023-05-02T23:49:17.543Z,99803.75
2023-05-02T23:51:46.099Z,99800.97
2023-05-02T23:54:14.546Z,99796.25
2023-05-02T23:56:42.802Z,99807.06
2023-05-02T23:59:11.550Z,99799.88
